WetterOnline ( http://www.wetteronline.de )

Wetter aktuell Trier

Aktuelles Wetter: Trier/Petrisberg (273m)

6-stündlich | Neueste Meldungen
Ortszeit Temperatur Wetter
Mo, 10.12. 19:00 5.0° C wolkig
Mo, 10.12. 13:00 5.7° C leicht bewölkt
Mo, 10.12. 7:00 2.9° C fast wolkenlos
Mo, 10.12. 1:00 5.2° C bewölkt
So, 09.12. 19:00 6.6° C leicht bewölkt
So, 09.12. 13:00 7.4° C bewölkt
So, 09.12. 7:00 6.5° C bewölkt
So, 09.12. 1:00 8.4° C leichter Regen
Ortszeit Temperatur Wetter
Mo, 10.12. 19:00 5.0° C wolkig
Mo, 10.12. 18:50 5.0° C wolkig
Mo, 10.12. 18:40 4.7° C leicht bewölkt
Mo, 10.12. 18:30 4.9° C wolkenlos
Mo, 10.12. 18:20 4.9° C wolkenlos
Mo, 10.12. 18:10 5.0° C wolkenlos
Mo, 10.12. 18:00 5.1° C fast wolkenlos
Mo, 10.12. 17:30 5.3° C wolkenlos
Mo, 10.12. 17:00 5.8° C leicht bewölkt
Mo, 10.12. 16:30 6.1° C wolkig
Mo, 10.12. 16:00 6.3° C bewölkt
Ortszeit Relative Feuchte Sichtweite
Mo, 10.12. 19:00 73% 70 km
Mo, 10.12. 13:00 74% 70 km
Mo, 10.12. 7:00 92% 35 km
Mo, 10.12. 1:00 81% 70 km
So, 09.12. 19:00 81% 70 km
So, 09.12. 13:00 83% 70 km
So, 09.12. 7:00 78% 70 km
So, 09.12. 1:00 84% 13 km
Ortszeit Relative Feuchte Sichtweite
Mo, 10.12. 19:00 73% 70 km
Mo, 10.12. 18:50 73% -
Mo, 10.12. 18:40 75% -
Mo, 10.12. 18:30 73% 70 km
Mo, 10.12. 18:20 73% -
Mo, 10.12. 18:10 73% -
Mo, 10.12. 18:00 72% 70 km
Mo, 10.12. 17:30 70% 70 km
Mo, 10.12. 17:00 66% 70 km
Mo, 10.12. 16:30 66% 70 km
Mo, 10.12. 16:00 66% 70 km
Ortszeit Niederschlagsmenge Niederschlagsart
Mo, 10.12. 19:00 0.1 l/m2 in 12 Std. Regen
Mo, 10.12. 13:00 0.1 l/m2 in 6 Std. Regen
Mo, 10.12. 7:00 2 l/m2 in 12 Std. Regen
Mo, 10.12. 1:00 0.1 l/m2 in 6 Std. Regen
So, 09.12. 19:00 5 l/m2 in 12 Std. Regen
So, 09.12. 13:00 3 l/m2 in 6 Std. Regen
So, 09.12. 7:00 7 l/m2 in 12 Std. Regen
So, 09.12. 1:00 5 l/m2 in 6 Std. Regen
Ortszeit Niederschlagsmenge Niederschlagsart
Mo, 10.12. 19:00 0.0 l/m2 in 1 Std. Regen
Mo, 10.12. 18:50 keine Meldung -
Mo, 10.12. 18:40 keine Meldung -
Mo, 10.12. 18:30 0.0 l/m2 in 1 Std. -
Mo, 10.12. 18:20 keine Meldung -
Mo, 10.12. 18:10 keine Meldung -
Mo, 10.12. 18:00 0.0 l/m2 in 1 Std. -
Mo, 10.12. 17:30 0.0 l/m2 in 1 Std. -
Mo, 10.12. 17:00 0.0 l/m2 in 1 Std. -
Mo, 10.12. 16:30 0.0 l/m2 in 1 Std. -
Mo, 10.12. 16:00 0.0 l/m2 in 1 Std. Regen
Ortszeit Stärke Spitze Richtung
km/h Bft. km/h Grad Sektor
Mo, 10.12. 19:00 11 2 40 280° W
Mo, 10.12. 13:00 13 3 24 250° W
Mo, 10.12. 7:00 11 2 25 230° SW
Mo, 10.12. 1:00 14 3 36 240° SW
So, 09.12. 19:00 11 2 47 270° W
So, 09.12. 13:00 31 5 57 220° SW
So, 09.12. 7:00 31 5 72 230° SW
So, 09.12. 1:00 28 4 78 240° SW
Ortszeit Stärke Spitze Richtung
km/h Bft. km/h Grad Sektor
Mo, 10.12. 19:00 11 2 29 280° W
Mo, 10.12. 18:50 11 2 - 280° W
Mo, 10.12. 18:40 9 2 - 280° W
Mo, 10.12. 18:30 11 2 29 280° W
Mo, 10.12. 18:20 11 2 - 280° W
Mo, 10.12. 18:10 14 3 - 280° W
Mo, 10.12. 18:00 14 3 32 250° W
Mo, 10.12. 17:30 14 3 32 270° W
Mo, 10.12. 17:00 17 3 39 260° W
Mo, 10.12. 16:30 14 3 40 280° W
Mo, 10.12. 16:00 15 3 35 260° W
Ortszeit Untergrenze Bedeckung Gattung
total tief tief mittel hoch
Mo, 10.12. 19:00 810 m 6/8 6/8 - - -
Mo, 10.12. 13:00 780 m 2/8 1/8 - - -
Mo, 10.12. 7:00 690 m 1/8 2/8 - - -
Mo, 10.12. 1:00 690 m 7/8 7/8 - - -
So, 09.12. 19:00 810 m 4/8 5/8 - - -
So, 09.12. 13:00 510 m 7/8 7/8 - - -
So, 09.12. 7:00 1140 m 7/8 7/8 - - -
So, 09.12. 1:00 690 m 7/8 6/8 - - -
Ortszeit Bedeckungsgrad in Achtel und Wolkenuntergrenze
Mo, 10.12. 19:00 2(810m) 4(1230m) 6(1470m)
Mo, 10.12. 18:50 2(810m) 4(1230m) 6(1470m)
Mo, 10.12. 18:40 4(1410m)
Mo, 10.12. 18:30 1(1500m)
Mo, 10.12. 18:20 keine Wolken
Mo, 10.12. 18:10 keine Wolken
Mo, 10.12. 18:00 1(810m)
Mo, 10.12. 17:30 1(810m)
Mo, 10.12. 17:00 2(1500m)
Mo, 10.12. 16:30 3(1110m) 5(1380m)
Mo, 10.12. 16:00 3(930m) 5(1140m) 7(1410m)
Ortszeit Luftdruck NN (hPa) Tendenz (hPa in 3 Std.)
Mo, 10.12. 19:00 1024 + 0,8
Mo, 10.12. 13:00 1024 0,0
Mo, 10.12. 7:00 1023 + 1,2
Mo, 10.12. 1:00 1019 + 2,8
So, 09.12. 19:00 1012 + 4,8
So, 09.12. 13:00 1004 0,0
So, 09.12. 7:00 1003 + 1,3
So, 09.12. 1:00 1001 - 1,0
Ortszeit Luftdruck NN (hPa) Tendenz (hPa in 3 Std.)
Mo, 10.12. 19:00 1024 + 0,8
Mo, 10.12. 18:50 1024 keine Meldung
Mo, 10.12. 18:40 1024 keine Meldung
Mo, 10.12. 18:30 1024 + 0,6
Mo, 10.12. 18:20 1024 keine Meldung
Mo, 10.12. 18:10 1024 keine Meldung
Mo, 10.12. 18:00 1024 + 0,4
Mo, 10.12. 17:30 1024 + 0,2
Mo, 10.12. 17:00 1024 + 0,1
Mo, 10.12. 16:30 1024 - 0,2
Mo, 10.12. 16:00 1023 - 0,4
Ortszeit Schneehöhe (cm)
Mo, 10.12. 19:00 0
Mo, 10.12. 13:00 0
Mo, 10.12. 7:00 0
Mo, 10.12. 1:00 0
So, 09.12. 19:00 0
So, 09.12. 13:00 0
So, 09.12. 7:00 0
So, 09.12. 1:00 0
Ortszeit Schneehöhe (cm)
Mo, 10.12. 19:00 0
Mo, 10.12. 18:50 0
Mo, 10.12. 18:40 0
Mo, 10.12. 18:30 0
Mo, 10.12. 18:20 0
Mo, 10.12. 18:10 0
Mo, 10.12. 18:00 0
Mo, 10.12. 17:30 0
Mo, 10.12. 17:00 0
Mo, 10.12. 16:30 0
Mo, 10.12. 16:00 0
Link zu dieser Seite / Seite empfehlen

Das Wetter in ...